sensor_id;sensor_type;location;lat;lon;timestamp;P1;durP1;ratioP1;P2;durP2;ratioP2
41456;SDS011;27197;51.752;5.220;2022-10-17T00:01:02;3.25;;;2.12;;
41456;SDS011;27197;51.752;5.220;2022-10-17T00:03:36;4.15;;;2.45;;
41456;SDS011;27197;51.752;5.220;2022-10-17T00:06:10;4.62;;;3.52;;
41456;SDS011;27197;51.752;5.220;2022-10-17T00:08:39;3.42;;;2.15;;
41456;SDS011;27197;51.752;5.220;2022-10-17T00:11:19;4.42;;;2.37;;
41456;SDS011;27197;51.752;5.220;2022-10-17T00:13:47;5.60;;;3.25;;
41456;SDS011;27197;51.752;5.220;2022-10-17T00:16:28;4.33;;;2.35;;
41456;SDS011;27197;51.752;5.220;2022-10-17T00:19:01;4.15;;;2.12;;
41456;SDS011;27197;51.752;5.220;2022-10-17T00:21:29;3.55;;;2.50;;
41456;SDS011;27197;51.752;5.220;2022-10-17T00:23:58;5.33;;;3.10;;
41456;SDS011;27197;51.752;5.220;2022-10-17T00:26:29;4.12;;;2.30;;
41456;SDS011;27197;51.752;5.220;2022-10-17T00:28:59;5.75;;;3.10;;
41456;SDS011;27197;51.752;5.220;2022-10-17T00:31:30;5.00;;;3.40;;
41456;SDS011;27197;51.752;5.220;2022-10-17T00:33:58;4.45;;;2.83;;
41456;SDS011;27197;51.752;5.220;2022-10-17T00:36:29;7.97;;;2.80;;
41456;SDS011;27197;51.752;5.220;2022-10-17T00:38:57;3.27;;;1.82;;
41456;SDS011;27197;51.752;5.220;2022-10-17T00:41:27;4.45;;;2.72;;
41456;SDS011;27197;51.752;5.220;2022-10-17T00:44:01;5.05;;;3.30;;
41456;SDS011;27197;51.752;5.220;2022-10-17T00:46:33;3.62;;;2.50;;
41456;SDS011;27197;51.752;5.220;2022-10-17T00:49:03;3.27;;;1.82;;
41456;SDS011;27197;51.752;5.220;2022-10-17T00:51:46;3.05;;;2.60;;
41456;SDS011;27197;51.752;5.220;2022-10-17T00:54:16;3.45;;;2.50;;
41456;SDS011;27197;51.752;5.220;2022-10-17T00:56:47;4.00;;;2.92;;
41456;SDS011;27197;51.752;5.220;2022-10-17T00:59:16;4.28;;;2.20;;
41456;SDS011;27197;51.752;5.220;2022-10-17T01:01:50;4.33;;;2.50;;
41456;SDS011;27197;51.752;5.220;2022-10-17T01:04:18;4.15;;;2.40;;
41456;SDS011;27197;51.752;5.220;2022-10-17T01:06:47;4.83;;;2.35;;
41456;SDS011;27197;51.752;5.220;2022-10-17T01:09:17;4.17;;;3.37;;
41456;SDS011;27197;51.752;5.220;2022-10-17T01:11:52;5.30;;;3.05;;
41456;SDS011;27197;51.752;5.220;2022-10-17T01:16:58;5.45;;;2.52;;
41456;SDS011;27197;51.752;5.220;2022-10-17T01:22:08;3.42;;;2.22;;
41456;SDS011;27197;51.752;5.220;2022-10-17T01:24:50;3.30;;;2.40;;
41456;SDS011;27197;51.752;5.220;2022-10-17T01:32:58;4.70;;;2.67;;
41456;SDS011;27197;51.752;5.220;2022-10-17T01:35:27;5.45;;;3.52;;
41456;SDS011;27197;51.752;5.220;2022-10-17T01:38:04;5.08;;;3.83;;
41456;SDS011;27197;51.752;5.220;2022-10-17T01:40:35;4.62;;;2.77;;
41456;SDS011;27197;51.752;5.220;2022-10-17T01:45:57;3.85;;;2.70;;
41456;SDS011;27197;51.752;5.220;2022-10-17T01:48:24;3.95;;;2.70;;
41456;SDS011;27197;51.752;5.220;2022-10-17T01:50:57;6.90;;;4.40;;
41456;SDS011;27197;51.752;5.220;2022-10-17T01:53:33;5.05;;;3.37;;
41456;SDS011;27197;51.752;5.220;2022-10-17T01:56:03;5.62;;;3.65;;
41456;SDS011;27197;51.752;5.220;2022-10-17T01:58:35;5.55;;;4.37;;
41456;SDS011;27197;51.752;5.220;2022-10-17T02:01:08;5.35;;;3.22;;
41456;SDS011;27197;51.752;5.220;2022-10-17T02:03:38;6.20;;;4.45;;
41456;SDS011;27197;51.752;5.220;2022-10-17T02:06:10;6.35;;;4.80;;
41456;SDS011;27197;51.752;5.220;2022-10-17T02:08:44;4.42;;;4.03;;
41456;SDS011;27197;51.752;5.220;2022-10-17T02:11:22;5.50;;;4.47;;
41456;SDS011;27197;51.752;5.220;2022-10-17T02:13:54;4.35;;;3.42;;
41456;SDS011;27197;51.752;5.220;2022-10-17T02:21:45;7.60;;;5.10;;
41456;SDS011;27197;51.752;5.220;2022-10-17T02:24:19;6.35;;;4.92;;
41456;SDS011;27197;51.752;5.220;2022-10-17T02:29:41;8.70;;;5.10;;
41456;SDS011;27197;51.752;5.220;2022-10-17T02:32:08;7.97;;;4.40;;
41456;SDS011;27197;51.752;5.220;2022-10-17T02:34:45;6.20;;;4.87;;
41456;SDS011;27197;51.752;5.220;2022-10-17T02:37:14;5.20;;;4.42;;
41456;SDS011;27197;51.752;5.220;2022-10-17T02:39:44;5.83;;;4.60;;
41456;SDS011;27197;51.752;5.220;2022-10-17T02:42:14;7.00;;;4.58;;
41456;SDS011;27197;51.752;5.220;2022-10-17T02:44:43;7.97;;;4.25;;
41456;SDS011;27197;51.752;5.220;2022-10-17T02:47:25;5.90;;;4.33;;
41456;SDS011;27197;51.752;5.220;2022-10-17T02:49:54;8.35;;;4.60;;
41456;SDS011;27197;51.752;5.220;2022-10-17T02:52:27;4.80;;;3.60;;
41456;SDS011;27197;51.752;5.220;2022-10-17T02:55:13;6.58;;;4.42;;
41456;SDS011;27197;51.752;5.220;2022-10-17T02:57:41;5.87;;;4.83;;
41456;SDS011;27197;51.752;5.220;2022-10-17T03:00:11;6.58;;;4.60;;
41456;SDS011;27197;51.752;5.220;2022-10-17T03:02:43;6.42;;;4.53;;
41456;SDS011;27197;51.752;5.220;2022-10-17T03:05:13;7.30;;;4.67;;
41456;SDS011;27197;51.752;5.220;2022-10-17T03:07:42;5.55;;;3.70;;
41456;SDS011;27197;51.752;5.220;2022-10-17T03:10:11;5.95;;;3.08;;
41456;SDS011;27197;51.752;5.220;2022-10-17T03:12:40;5.35;;;3.92;;
41456;SDS011;27197;51.752;5.220;2022-10-17T03:15:10;4.92;;;3.52;;
41456;SDS011;27197;51.752;5.220;2022-10-17T03:17:38;6.10;;;5.12;;
41456;SDS011;27197;51.752;5.220;2022-10-17T03:20:08;7.72;;;4.97;;
41456;SDS011;27197;51.752;5.220;2022-10-17T03:22:37;8.00;;;4.40;;
41456;SDS011;27197;51.752;5.220;2022-10-17T03:25:06;7.53;;;5.05;;
41456;SDS011;27197;51.752;5.220;2022-10-17T03:27:35;8.83;;;4.65;;
41456;SDS011;27197;51.752;5.220;2022-10-17T03:30:04;8.43;;;4.40;;
41456;SDS011;27197;51.752;5.220;2022-10-17T03:32:33;5.78;;;4.53;;
41456;SDS011;27197;51.752;5.220;2022-10-17T03:35:05;6.03;;;4.28;;
41456;SDS011;27197;51.752;5.220;2022-10-17T03:37:34;4.67;;;3.15;;
41456;SDS011;27197;51.752;5.220;2022-10-17T03:40:03;5.83;;;3.58;;
41456;SDS011;27197;51.752;5.220;2022-10-17T03:42:32;5.97;;;3.42;;
41456;SDS011;27197;51.752;5.220;2022-10-17T03:45:01;6.17;;;3.75;;
41456;SDS011;27197;51.752;5.220;2022-10-17T03:47:30;7.28;;;4.58;;
41456;SDS011;27197;51.752;5.220;2022-10-17T03:49:59;6.83;;;3.35;;
41456;SDS011;27197;51.752;5.220;2022-10-17T03:52:30;6.62;;;4.50;;
41456;SDS011;27197;51.752;5.220;2022-10-17T03:55:01;6.35;;;4.50;;
41456;SDS011;27197;51.752;5.220;2022-10-17T03:57:29;7.30;;;5.03;;
41456;SDS011;27197;51.752;5.220;2022-10-17T03:59:59;5.67;;;3.40;;
41456;SDS011;27197;51.752;5.220;2022-10-17T04:02:31;4.12;;;2.85;;
41456;SDS011;27197;51.752;5.220;2022-10-17T04:05:03;5.50;;;3.25;;
41456;SDS011;27197;51.752;5.220;2022-10-17T04:07:31;5.45;;;3.02;;
41456;SDS011;27197;51.752;5.220;2022-10-17T04:10:00;4.00;;;2.60;;
41456;SDS011;27197;51.752;5.220;2022-10-17T04:12:33;3.83;;;2.47;;
41456;SDS011;27197;51.752;5.220;2022-10-17T04:15:03;7.08;;;3.00;;
41456;SDS011;27197;51.752;5.220;2022-10-17T04:17:32;6.05;;;3.80;;
41456;SDS011;27197;51.752;5.220;2022-10-17T04:20:01;6.60;;;4.50;;
41456;SDS011;27197;51.752;5.220;2022-10-17T04:22:30;8.15;;;3.05;;
41456;SDS011;27197;51.752;5.220;2022-10-17T04:24:59;5.62;;;3.22;;
41456;SDS011;27197;51.752;5.220;2022-10-17T04:27:28;6.72;;;3.35;;
41456;SDS011;27197;51.752;5.220;2022-10-17T04:29:57;17.25;;;3.58;;
41456;SDS011;27197;51.752;5.220;2022-10-17T04:32:26;9.03;;;3.58;;
41456;SDS011;27197;51.752;5.220;2022-10-17T04:34:54;6.42;;;3.65;;
41456;SDS011;27197;51.752;5.220;2022-10-17T04:37:24;6.33;;;3.42;;
41456;SDS011;27197;51.752;5.220;2022-10-17T04:39:53;11.22;;;3.87;;
41456;SDS011;27197;51.752;5.220;2022-10-17T04:42:21;9.40;;;3.35;;
41456;SDS011;27197;51.752;5.220;2022-10-17T04:44:52;15.30;;;4.97;;
41456;SDS011;27197;51.752;5.220;2022-10-17T04:47:21;6.08;;;3.70;;
41456;SDS011;27197;51.752;5.220;2022-10-17T04:49:52;5.80;;;2.80;;
41456;SDS011;27197;51.752;5.220;2022-10-17T04:52:20;5.72;;;3.40;;
41456;SDS011;27197;51.752;5.220;2022-10-17T04:54:49;6.87;;;3.85;;
41456;SDS011;27197;51.752;5.220;2022-10-17T04:57:20;6.90;;;4.15;;
41456;SDS011;27197;51.752;5.220;2022-10-17T04:59:55;5.50;;;4.35;;
41456;SDS011;27197;51.752;5.220;2022-10-17T05:02:23;5.60;;;3.50;;
41456;SDS011;27197;51.752;5.220;2022-10-17T05:04:52;7.45;;;3.30;;
41456;SDS011;27197;51.752;5.220;2022-10-17T05:07:22;6.05;;;2.92;;
41456;SDS011;27197;51.752;5.220;2022-10-17T05:09:50;4.83;;;3.08;;
41456;SDS011;27197;51.752;5.220;2022-10-17T05:12:21;5.15;;;3.90;;
41456;SDS011;27197;51.752;5.220;2022-10-17T05:17:19;4.58;;;3.37;;
41456;SDS011;27197;51.752;5.220;2022-10-17T05:19:49;6.33;;;2.85;;
41456;SDS011;27197;51.752;5.220;2022-10-17T05:22:18;6.35;;;3.87;;
41456;SDS011;27197;51.752;5.220;2022-10-17T05:24:47;6.40;;;3.27;;
41456;SDS011;27197;51.752;5.220;2022-10-17T05:27:19;5.55;;;3.85;;
41456;SDS011;27197;51.752;5.220;2022-10-17T05:29:49;5.97;;;3.65;;
41456;SDS011;27197;51.752;5.220;2022-10-17T05:32:18;6.10;;;3.47;;
41456;SDS011;27197;51.752;5.220;2022-10-17T05:34:46;5.25;;;3.00;;
41456;SDS011;27197;51.752;5.220;2022-10-17T05:37:15;6.65;;;3.98;;
41456;SDS011;27197;51.752;5.220;2022-10-17T05:39:44;6.87;;;3.65;;
41456;SDS011;27197;51.752;5.220;2022-10-17T05:42:13;6.83;;;3.98;;
41456;SDS011;27197;51.752;5.220;2022-10-17T05:44:42;7.10;;;3.30;;
41456;SDS011;27197;51.752;5.220;2022-10-17T05:47:11;6.10;;;3.20;;
41456;SDS011;27197;51.752;5.220;2022-10-17T05:49:40;3.90;;;2.65;;
41456;SDS011;27197;51.752;5.220;2022-10-17T05:52:09;5.20;;;3.33;;
41456;SDS011;27197;51.752;5.220;2022-10-17T05:54:38;5.10;;;3.10;;
41456;SDS011;27197;51.752;5.220;2022-10-17T05:57:07;6.78;;;4.17;;
41456;SDS011;27197;51.752;5.220;2022-10-17T05:59:36;9.20;;;4.22;;
41456;SDS011;27197;51.752;5.220;2022-10-17T06:02:05;6.75;;;3.77;;
41456;SDS011;27197;51.752;5.220;2022-10-17T06:04:34;9.33;;;4.60;;
41456;SDS011;27197;51.752;5.220;2022-10-17T06:07:06;6.80;;;4.08;;
41456;SDS011;27197;51.752;5.220;2022-10-17T06:09:34;7.30;;;3.95;;
41456;SDS011;27197;51.752;5.220;2022-10-17T06:12:06;6.45;;;3.33;;
41456;SDS011;27197;51.752;5.220;2022-10-17T06:14:34;4.65;;;3.80;;
41456;SDS011;27197;51.752;5.220;2022-10-17T06:17:04;7.15;;;3.95;;
41456;SDS011;27197;51.752;5.220;2022-10-17T06:19:32;5.83;;;3.47;;
41456;SDS011;27197;51.752;5.220;2022-10-17T06:22:01;8.13;;;4.25;;
41456;SDS011;27197;51.752;5.220;2022-10-17T06:24:30;7.87;;;4.12;;
41456;SDS011;27197;51.752;5.220;2022-10-17T06:26:59;5.87;;;3.60;;
41456;SDS011;27197;51.752;5.220;2022-10-17T06:29:28;7.20;;;4.15;;
41456;SDS011;27197;51.752;5.220;2022-10-17T06:31:57;4.95;;;3.75;;
41456;SDS011;27197;51.752;5.220;2022-10-17T06:34:26;6.20;;;3.65;;
41456;SDS011;27197;51.752;5.220;2022-10-17T06:39:22;10.10;;;3.72;;
41456;SDS011;27197;51.752;5.220;2022-10-17T06:41:52;7.05;;;4.20;;
41456;SDS011;27197;51.752;5.220;2022-10-17T06:44:22;8.45;;;4.28;;
41456;SDS011;27197;51.752;5.220;2022-10-17T06:46:51;6.22;;;3.25;;
41456;SDS011;27197;51.752;5.220;2022-10-17T06:49:21;6.97;;;3.52;;
41456;SDS011;27197;51.752;5.220;2022-10-17T06:51:50;5.42;;;3.37;;
41456;SDS011;27197;51.752;5.220;2022-10-17T06:54:19;5.70;;;3.85;;
41456;SDS011;27197;51.752;5.220;2022-10-17T06:56:50;5.75;;;3.42;;
41456;SDS011;27197;51.752;5.220;2022-10-17T06:59:18;5.75;;;3.67;;
41456;SDS011;27197;51.752;5.220;2022-10-17T07:01:47;5.62;;;3.77;;
41456;SDS011;27197;51.752;5.220;2022-10-17T07:04:16;7.28;;;3.65;;
41456;SDS011;27197;51.752;5.220;2022-10-17T07:06:48;5.70;;;4.12;;
41456;SDS011;27197;51.752;5.220;2022-10-17T07:09:18;6.28;;;3.67;;
41456;SDS011;27197;51.752;5.220;2022-10-17T07:11:47;9.95;;;3.80;;
41456;SDS011;27197;51.752;5.220;2022-10-17T07:14:16;5.78;;;4.53;;
41456;SDS011;27197;51.752;5.220;2022-10-17T07:16:45;7.53;;;4.53;;
41456;SDS011;27197;51.752;5.220;2022-10-17T07:19:14;6.87;;;4.03;;
41456;SDS011;27197;51.752;5.220;2022-10-17T07:21:42;6.05;;;4.28;;
41456;SDS011;27197;51.752;5.220;2022-10-17T07:24:10;5.20;;;3.92;;
41456;SDS011;27197;51.752;5.220;2022-10-17T07:26:40;10.18;;;3.95;;
41456;SDS011;27197;51.752;5.220;2022-10-17T07:29:08;7.92;;;3.92;;
41456;SDS011;27197;51.752;5.220;2022-10-17T07:31:41;7.95;;;3.72;;
41456;SDS011;27197;51.752;5.220;2022-10-17T07:34:10;4.58;;;3.45;;
41456;SDS011;27197;51.752;5.220;2022-10-17T07:36:40;6.97;;;3.60;;
41456;SDS011;27197;51.752;5.220;2022-10-17T07:39:09;8.25;;;3.77;;
41456;SDS011;27197;51.752;5.220;2022-10-17T07:41:38;5.75;;;3.83;;
41456;SDS011;27197;51.752;5.220;2022-10-17T07:44:06;6.57;;;4.57;;
41456;SDS011;27197;51.752;5.220;2022-10-17T07:46:35;9.65;;;7.67;;
41456;SDS011;27197;51.752;5.220;2022-10-17T07:49:05;10.40;;;7.67;;
41456;SDS011;27197;51.752;5.220;2022-10-17T07:51:34;10.08;;;6.85;;
41456;SDS011;27197;51.752;5.220;2022-10-17T07:54:06;7.05;;;4.75;;
41456;SDS011;27197;51.752;5.220;2022-10-17T07:56:34;7.25;;;4.10;;
41456;SDS011;27197;51.752;5.220;2022-10-17T07:59:05;6.90;;;4.08;;
41456;SDS011;27197;51.752;5.220;2022-10-17T08:01:35;7.72;;;4.28;;
41456;SDS011;27197;51.752;5.220;2022-10-17T08:06:30;8.20;;;6.87;;
41456;SDS011;27197;51.752;5.220;2022-10-17T08:08:59;9.40;;;7.83;;
41456;SDS011;27197;51.752;5.220;2022-10-17T08:11:28;11.63;;;5.75;;
41456;SDS011;27197;51.752;5.220;2022-10-17T08:14:01;6.10;;;3.85;;
41456;SDS011;27197;51.752;5.220;2022-10-17T08:16:30;6.05;;;4.12;;
41456;SDS011;27197;51.752;5.220;2022-10-17T08:18:59;8.78;;;3.80;;
41456;SDS011;27197;51.752;5.220;2022-10-17T08:21:29;7.53;;;5.35;;
41456;SDS011;27197;51.752;5.220;2022-10-17T08:24:01;8.03;;;5.70;;
41456;SDS011;27197;51.752;5.220;2022-10-17T08:26:29;8.60;;;5.00;;
41456;SDS011;27197;51.752;5.220;2022-10-17T08:28:59;6.62;;;3.92;;
41456;SDS011;27197;51.752;5.220;2022-10-17T08:31:30;6.78;;;3.90;;
41456;SDS011;27197;51.752;5.220;2022-10-17T08:33:58;6.50;;;3.47;;
41456;SDS011;27197;51.752;5.220;2022-10-17T08:36:27;6.50;;;4.17;;
41456;SDS011;27197;51.752;5.220;2022-10-17T08:38:56;7.87;;;4.55;;
41456;SDS011;27197;51.752;5.220;2022-10-17T08:41:33;6.47;;;3.60;;
41456;SDS011;27197;51.752;5.220;2022-10-17T08:44:02;5.95;;;3.72;;
41456;SDS011;27197;51.752;5.220;2022-10-17T08:46:33;7.87;;;4.22;;
41456;SDS011;27197;51.752;5.220;2022-10-17T08:49:02;5.62;;;3.50;;
41456;SDS011;27197;51.752;5.220;2022-10-17T08:51:32;6.10;;;4.00;;
41456;SDS011;27197;51.752;5.220;2022-10-17T08:54:05;5.28;;;3.90;;
41456;SDS011;27197;51.752;5.220;2022-10-17T08:56:46;7.05;;;4.28;;
41456;SDS011;27197;51.752;5.220;2022-10-17T08:59:20;7.97;;;5.62;;
41456;SDS011;27197;51.752;5.220;2022-10-17T09:01:59;9.48;;;7.72;;
41456;SDS011;27197;51.752;5.220;2022-10-17T09:04:34;8.23;;;4.22;;
41456;SDS011;27197;51.752;5.220;2022-10-17T09:07:20;7.08;;;3.77;;
41456;SDS011;27197;51.752;5.220;2022-10-17T09:09:59;5.40;;;3.58;;
41456;SDS011;27197;51.752;5.220;2022-10-17T09:12:08;7.62;;;4.00;;
41456;SDS011;27197;51.752;5.220;2022-10-17T09:17:40;6.67;;;3.70;;
41456;SDS011;27197;51.752;5.220;2022-10-17T09:20:11;8.10;;;4.20;;
41456;SDS011;27197;51.752;5.220;2022-10-17T09:22:50;4.65;;;3.12;;
41456;SDS011;27197;51.752;5.220;2022-10-17T09:25:10;5.28;;;3.80;;
41456;SDS011;27197;51.752;5.220;2022-10-17T09:27:44;5.25;;;3.80;;
41456;SDS011;27197;51.752;5.220;2022-10-17T09:30:15;5.55;;;3.67;;
41456;SDS011;27197;51.752;5.220;2022-10-17T09:32:47;6.45;;;3.42;;
41456;SDS011;27197;51.752;5.220;2022-10-17T09:35:18;5.72;;;3.55;;
41456;SDS011;27197;51.752;5.220;2022-10-17T09:37:45;9.83;;;3.60;;
41456;SDS011;27197;51.752;5.220;2022-10-17T09:40:27;6.62;;;3.40;;
41456;SDS011;27197;51.752;5.220;2022-10-17T09:42:57;6.35;;;3.33;;
41456;SDS011;27197;51.752;5.220;2022-10-17T09:45:26;5.80;;;3.40;;
41456;SDS011;27197;51.752;5.220;2022-10-17T09:50:37;5.78;;;3.80;;
41456;SDS011;27197;51.752;5.220;2022-10-17T09:53:12;6.03;;;3.52;;
41456;SDS011;27197;51.752;5.220;2022-10-17T09:55:44;4.03;;;2.95;;
41456;SDS011;27197;51.752;5.220;2022-10-17T09:58:13;4.30;;;3.10;;
41456;SDS011;27197;51.752;5.220;2022-10-17T10:00:42;5.22;;;3.35;;
41456;SDS011;27197;51.752;5.220;2022-10-17T10:03:19;5.42;;;3.37;;
41456;SDS011;27197;51.752;5.220;2022-10-17T10:08:17;5.20;;;2.92;;
41456;SDS011;27197;51.752;5.220;2022-10-17T10:10:48;6.00;;;3.52;;
41456;SDS011;27197;51.752;5.220;2022-10-17T10:13:18;5.28;;;3.47;;
41456;SDS011;27197;51.752;5.220;2022-10-17T10:15:49;8.03;;;3.40;;
41456;SDS011;27197;51.752;5.220;2022-10-17T10:18:30;3.95;;;2.72;;
41456;SDS011;27197;51.752;5.220;2022-10-17T10:21:06;5.75;;;3.47;;
41456;SDS011;27197;51.752;5.220;2022-10-17T10:23:34;5.45;;;3.10;;
41456;SDS011;27197;51.752;5.220;2022-10-17T10:26:03;4.40;;;3.00;;
41456;SDS011;27197;51.752;5.220;2022-10-17T10:28:34;7.47;;;3.47;;
41456;SDS011;27197;51.752;5.220;2022-10-17T10:31:04;4.72;;;3.25;;
41456;SDS011;27197;51.752;5.220;2022-10-17T10:33:38;5.03;;;3.55;;
41456;SDS011;27197;51.752;5.220;2022-10-17T10:36:06;4.65;;;3.22;;
41456;SDS011;27197;51.752;5.220;2022-10-17T10:38:37;5.65;;;2.95;;
41456;SDS011;27197;51.752;5.220;2022-10-17T10:41:12;4.10;;;3.00;;
41456;SDS011;27197;51.752;5.220;2022-10-17T10:43:46;4.15;;;2.70;;
41456;SDS011;27197;51.752;5.220;2022-10-17T10:48:52;15.78;;;3.58;;
41456;SDS011;27197;51.752;5.220;2022-10-17T10:54:05;4.72;;;3.08;;
41456;SDS011;27197;51.752;5.220;2022-10-17T10:59:23;5.22;;;2.60;;
41456;SDS011;27197;51.752;5.220;2022-10-17T11:01:55;5.15;;;3.10;;
41456;SDS011;27197;51.752;5.220;2022-10-17T11:04:41;5.17;;;3.37;;
41456;SDS011;27197;51.752;5.220;2022-10-17T11:07:12;5.83;;;2.90;;
41456;SDS011;27197;51.752;5.220;2022-10-17T11:12:32;6.17;;;3.55;;
41456;SDS011;27197;51.752;5.220;2022-10-17T11:17:50;5.10;;;3.00;;
41456;SDS011;27197;51.752;5.220;2022-10-17T11:20:19;4.65;;;3.42;;
41456;SDS011;27197;51.752;5.220;2022-10-17T11:22:47;5.62;;;3.22;;
41456;SDS011;27197;51.752;5.220;2022-10-17T11:25:35;6.60;;;3.40;;
41456;SDS011;27197;51.752;5.220;2022-10-17T11:28:12;5.83;;;3.92;;
41456;SDS011;27197;51.752;5.220;2022-10-17T11:30:47;6.05;;;3.52;;
41456;SDS011;27197;51.752;5.220;2022-10-17T11:33:19;5.35;;;4.40;;
41456;SDS011;27197;51.752;5.220;2022-10-17T11:35:48;6.12;;;4.70;;
41456;SDS011;27197;51.752;5.220;2022-10-17T11:38:25;5.33;;;4.25;;
41456;SDS011;27197;51.752;5.220;2022-10-17T11:40:52;5.62;;;4.75;;
41456;SDS011;27197;51.752;5.220;2022-10-17T11:43:31;6.53;;;4.15;;
41456;SDS011;27197;51.752;5.220;2022-10-17T11:48:51;7.03;;;4.12;;
41456;SDS011;27197;51.752;5.220;2022-10-17T11:51:16;6.12;;;3.42;;
41456;SDS011;27197;51.752;5.220;2022-10-17T11:53:50;5.85;;;4.08;;
41456;SDS011;27197;51.752;5.220;2022-10-17T11:56:33;7.55;;;5.45;;
41456;SDS011;27197;51.752;5.220;2022-10-17T11:59:09;7.12;;;5.65;;
41456;SDS011;27197;51.752;5.220;2022-10-17T12:01:37;5.47;;;4.08;;
41456;SDS011;27197;51.752;5.220;2022-10-17T12:06:58;6.60;;;4.50;;
41456;SDS011;27197;51.752;5.220;2022-10-17T12:09:28;8.80;;;7.17;;
41456;SDS011;27197;51.752;5.220;2022-10-17T12:11:55;7.50;;;4.70;;
41456;SDS011;27197;51.752;5.220;2022-10-17T12:14:44;4.50;;;3.67;;
41456;SDS011;27197;51.752;5.220;2022-10-17T12:22:46;4.40;;;2.90;;
41456;SDS011;27197;51.752;5.220;2022-10-17T12:25:25;4.67;;;3.10;;
41456;SDS011;27197;51.752;5.220;2022-10-17T12:28:09;4.17;;;3.10;;
41456;SDS011;27197;51.752;5.220;2022-10-17T12:30:36;6.20;;;3.02;;
41456;SDS011;27197;51.752;5.220;2022-10-17T12:33:20;7.05;;;3.00;;
41456;SDS011;27197;51.752;5.220;2022-10-17T12:38:38;4.30;;;2.90;;
41456;SDS011;27197;51.752;5.220;2022-10-17T12:41:10;5.40;;;2.80;;
41456;SDS011;27197;51.752;5.220;2022-10-17T12:43:43;9.00;;;3.20;;
41456;SDS011;27197;51.752;5.220;2022-10-17T12:46:11;3.95;;;2.80;;
41456;SDS011;27197;51.752;5.220;2022-10-17T12:51:12;8.53;;;3.45;;
41456;SDS011;27197;51.752;5.220;2022-10-17T12:53:58;4.80;;;2.77;;
41456;SDS011;27197;51.752;5.220;2022-10-17T12:56:34;11.83;;;3.50;;
41456;SDS011;27197;51.752;5.220;2022-10-17T12:59:00;8.28;;;3.30;;
41456;SDS011;27197;51.752;5.220;2022-10-17T13:01:30;8.30;;;3.60;;
41456;SDS011;27197;51.752;5.220;2022-10-17T13:04:01;4.72;;;3.90;;
41456;SDS011;27197;51.752;5.220;2022-10-17T13:06:31;7.08;;;3.50;;
41456;SDS011;27197;51.752;5.220;2022-10-17T13:09:06;5.33;;;3.30;;
41456;SDS011;27197;51.752;5.220;2022-10-17T13:11:35;6.30;;;3.37;;
41456;SDS011;27197;51.752;5.220;2022-10-17T13:14:12;6.85;;;3.75;;
41456;SDS011;27197;51.752;5.220;2022-10-17T13:16:38;7.33;;;4.65;;
41456;SDS011;27197;51.752;5.220;2022-10-17T13:19:13;6.47;;;4.30;;
41456;SDS011;27197;51.752;5.220;2022-10-17T13:21:56;7.55;;;4.67;;
41456;SDS011;27197;51.752;5.220;2022-10-17T13:26:58;7.10;;;5.78;;
41456;SDS011;27197;51.752;5.220;2022-10-17T13:29:27;5.53;;;4.92;;
41456;SDS011;27197;51.752;5.220;2022-10-17T13:31:58;7.72;;;4.85;;
41456;SDS011;27197;51.752;5.220;2022-10-17T13:34:29;6.90;;;4.30;;
41456;SDS011;27197;51.752;5.220;2022-10-17T13:37:03;5.20;;;4.60;;
41456;SDS011;27197;51.752;5.220;2022-10-17T13:39:32;5.58;;;4.75;;
41456;SDS011;27197;51.752;5.220;2022-10-17T13:42:03;6.58;;;5.03;;
41456;SDS011;27197;51.752;5.220;2022-10-17T13:44:32;5.87;;;4.25;;
41456;SDS011;27197;51.752;5.220;2022-10-17T13:47:02;4.90;;;3.47;;
41456;SDS011;27197;51.752;5.220;2022-10-17T13:49:36;6.35;;;5.15;;
41456;SDS011;27197;51.752;5.220;2022-10-17T13:52:04;5.33;;;3.45;;
41456;SDS011;27197;51.752;5.220;2022-10-17T13:54:41;5.85;;;4.10;;
41456;SDS011;27197;51.752;5.220;2022-10-17T13:57:25;7.70;;;6.37;;
41456;SDS011;27197;51.752;5.220;2022-10-17T14:00:02;5.17;;;4.20;;
41456;SDS011;27197;51.752;5.220;2022-10-17T14:02:29;7.55;;;4.25;;
41456;SDS011;27197;51.752;5.220;2022-10-17T14:05:07;10.90;;;6.92;;
41456;SDS011;27197;51.752;5.220;2022-10-17T14:07:43;6.12;;;3.98;;
41456;SDS011;27197;51.752;5.220;2022-10-17T14:10:16;10.03;;;4.92;;
41456;SDS011;27197;51.752;5.220;2022-10-17T14:12:42;7.05;;;4.58;;
41456;SDS011;27197;51.752;5.220;2022-10-17T14:15:16;8.53;;;6.50;;
41456;SDS011;27197;51.752;5.220;2022-10-17T14:17:45;8.70;;;5.87;;
41456;SDS011;27197;51.752;5.220;2022-10-17T14:20:18;9.45;;;5.37;;
41456;SDS011;27197;51.752;5.220;2022-10-17T14:22:47;8.35;;;7.45;;
41456;SDS011;27197;51.752;5.220;2022-10-17T14:25:36;7.45;;;4.65;;
41456;SDS011;27197;51.752;5.220;2022-10-17T14:30:45;8.63;;;4.28;;
41456;SDS011;27197;51.752;5.220;2022-10-17T14:33:24;8.25;;;7.37;;
41456;SDS011;27197;51.752;5.220;2022-10-17T14:35:53;6.67;;;4.97;;
41456;SDS011;27197;51.752;5.220;2022-10-17T14:38:22;7.33;;;5.15;;
41456;SDS011;27197;51.752;5.220;2022-10-17T14:40:52;8.55;;;5.40;;
41456;SDS011;27197;51.752;5.220;2022-10-17T14:43:21;5.60;;;4.53;;
41456;SDS011;27197;51.752;5.220;2022-10-17T14:45:55;6.30;;;5.00;;
41456;SDS011;27197;51.752;5.220;2022-10-17T14:48:23;7.42;;;5.55;;
41456;SDS011;27197;51.752;5.220;2022-10-17T14:51:10;6.20;;;4.50;;
41456;SDS011;27197;51.752;5.220;2022-10-17T14:53:37;6.47;;;4.12;;
41456;SDS011;27197;51.752;5.220;2022-10-17T14:56:24;7.67;;;4.97;;
41456;SDS011;27197;51.752;5.220;2022-10-17T14:58:51;7.05;;;5.28;;
41456;SDS011;27197;51.752;5.220;2022-10-17T15:01:20;5.55;;;4.47;;
41456;SDS011;27197;51.752;5.220;2022-10-17T15:03:49;9.75;;;5.78;;
41456;SDS011;27197;51.752;5.220;2022-10-17T15:06:21;5.87;;;4.62;;
41456;SDS011;27197;51.752;5.220;2022-10-17T15:08:52;10.50;;;7.50;;
41456;SDS011;27197;51.752;5.220;2022-10-17T15:11:20;9.43;;;7.30;;
41456;SDS011;27197;51.752;5.220;2022-10-17T15:13:49;7.22;;;5.92;;
41456;SDS011;27197;51.752;5.220;2022-10-17T15:16:26;7.30;;;5.47;;
41456;SDS011;27197;51.752;5.220;2022-10-17T15:18:55;9.08;;;7.17;;
41456;SDS011;27197;51.752;5.220;2022-10-17T15:24:09;7.28;;;5.97;;
41456;SDS011;27197;51.752;5.220;2022-10-17T15:26:40;16.35;;;7.53;;
41456;SDS011;27197;51.752;5.220;2022-10-17T15:29:12;6.83;;;5.87;;
41456;SDS011;27197;51.752;5.220;2022-10-17T15:31:39;10.32;;;7.85;;
41456;SDS011;27197;51.752;5.220;2022-10-17T15:34:08;7.40;;;5.28;;
41456;SDS011;27197;51.752;5.220;2022-10-17T15:36:42;8.30;;;5.37;;
41456;SDS011;27197;51.752;5.220;2022-10-17T15:39:10;10.65;;;7.53;;
41456;SDS011;27197;51.752;5.220;2022-10-17T15:41:39;9.88;;;6.53;;
41456;SDS011;27197;51.752;5.220;2022-10-17T15:44:08;9.35;;;6.30;;
41456;SDS011;27197;51.752;5.220;2022-10-17T15:46:37;11.63;;;8.15;;
41456;SDS011;27197;51.752;5.220;2022-10-17T15:49:09;9.85;;;7.05;;
41456;SDS011;27197;51.752;5.220;2022-10-17T15:51:36;11.55;;;6.75;;
41456;SDS011;27197;51.752;5.220;2022-10-17T15:54:05;8.18;;;6.15;;
41456;SDS011;27197;51.752;5.220;2022-10-17T15:56:38;7.72;;;6.03;;
41456;SDS011;27197;51.752;5.220;2022-10-17T15:59:14;9.20;;;6.95;;
41456;SDS011;27197;51.752;5.220;2022-10-17T16:01:40;7.80;;;6.15;;
41456;SDS011;27197;51.752;5.220;2022-10-17T16:04:14;8.53;;;6.37;;
41456;SDS011;27197;51.752;5.220;2022-10-17T16:06:43;12.20;;;8.48;;
41456;SDS011;27197;51.752;5.220;2022-10-17T16:09:12;7.80;;;6.00;;
41456;SDS011;27197;51.752;5.220;2022-10-17T16:11:41;9.85;;;7.70;;
41456;SDS011;27197;51.752;5.220;2022-10-17T16:14:15;5.90;;;4.97;;
41456;SDS011;27197;51.752;5.220;2022-10-17T16:16:43;8.05;;;6.00;;
41456;SDS011;27197;51.752;5.220;2022-10-17T16:19:14;7.83;;;6.17;;
41456;SDS011;27197;51.752;5.220;2022-10-17T16:21:41;6.65;;;5.42;;
41456;SDS011;27197;51.752;5.220;2022-10-17T16:24:14;6.87;;;5.03;;
41456;SDS011;27197;51.752;5.220;2022-10-17T16:26:42;7.72;;;6.28;;